• Join FlightAware (Why Join?)
  • Login
  • US Flag 
07:27AM EDT


 

Airport Tracker/Info


-or-


 

Live Flight TrackerFlight Track Log ✈ N50545 ✈ 21-Apr-2013 ✈ KVDI - KAUO

Flight Track Log - Related Links

Times and Time Zones

All times are in EDT time to prevent confusion due to time zone crossing. See the N50545 flight status page for this flight to view local times or setup timezone preferences in your user account.

Time Position Orientation Groundspeed Altitude Reporting Facility
EDT Latitude Longitude Course Direction KTS MPH feet Rate Location/Type
05:26PM 32.2578 -82.4603 312° West 105 121 4,000  Level Jacksonville Center
05:27PM 32.2828 -82.4872 318° Northwest 105 121 4,100  Climbing Jacksonville Center
05:28PM 32.2630 -82.4630 320° Northwest  Level FlightAware Approximate
05:28PM 32.3058 -82.5142 315° West 110 127 4,100  Level Jacksonville Center
05:29PM 32.2846 -82.4850 312° West  Level FlightAware Approximate
05:29PM 32.3311 -82.5433 316° Northwest 116 133 4,000  Level Jacksonville Center
05:30PM 32.3519 -82.5706 312° West 116 133 4,100  Climbing Jacksonville Center
05:32PM 32.4000 -82.6333 312° West 112 129 4,100  Level Atlanta TRACON
05:33PM 32.4167 -82.6500 320° Northwest 118 136 4,100  Level Atlanta TRACON
05:34PM 32.4500 -82.6833 320° Northwest 115 132 4,100 -60 Level Atlanta TRACON
05:35PM 32.4667 -82.7000 320° Northwest 114 131 4,000 -60 Descending Atlanta TRACON
05:36PM 32.4833 -82.7333 301° West 118 136 4,000  Level Atlanta TRACON
05:37PM 32.5167 -82.7667 320° Northwest 112 129 4,100  Climbing Atlanta TRACON
05:38PM 32.5333 -82.7833 320° Northwest 112 129 4,000  Descending Atlanta TRACON
05:39PM 32.5500 -82.8167 301° West 114 131 4,100  Climbing Atlanta TRACON
05:40PM 32.5667 -82.8500 301° West 119 137 4,000  Descending Atlanta TRACON
05:41PM 32.5667 -82.8833 270° West 120 138 4,100 300 Climbing Atlanta TRACON
05:42PM 32.5833 -82.9167 301° West 109 125 4,700 420 Climbing Atlanta TRACON
05:43PM 32.5833 -82.9500 270° West 109 125 5,000 120 Climbing Atlanta TRACON
05:44PM 32.5833 -83.0000 270° West 123 142 5,000  Level Atlanta TRACON
05:45PM 32.6000 -83.0333 301° West 123 142 5,000 60 Level Atlanta TRACON
05:46PM 32.6000 -83.0667 270° West 117 135 5,200 300 Climbing Atlanta TRACON
05:47PM 32.6000 -83.1167 270° West 118 136 5,700 360 Climbing Atlanta TRACON
05:48PM 32.6167 -83.1500 301° West 121 139 6,000 360 Climbing Atlanta TRACON
05:49PM 32.6167 -83.1833 270° West 116 133 6,500 540 Climbing Atlanta TRACON
05:50PM 32.6333 -83.2167 301° West 110 127 7,100 360 Climbing Atlanta TRACON
05:51PM 32.6333 -83.2667 270° West 112 129 7,300 240 Climbing Atlanta TRACON
05:52PM 32.6333 -83.3000 270° West 111 128 7,700 300 Climbing Atlanta TRACON
05:53PM 32.6500 -83.3333 301° West 112 129 7,900 120 Climbing Atlanta TRACON
05:54PM 32.6500 -83.3667 270° West 117 135 8,000  Climbing Atlanta TRACON
05:55PM 32.6500 -83.4000 270° West 121 139 8,000  Level Atlanta TRACON
05:56PM 32.6667 -83.4500 292° West 119 137 8,000  Level Atlanta TRACON
05:57PM 32.6667 -83.4833 270° West 111 128 8,000  Level Atlanta TRACON
05:58PM 32.6667 -83.5167 270° West 116 133 8,000  Level Atlanta TRACON
05:59PM 32.6833 -83.5500 301° West 116 133 8,000  Level Atlanta TRACON
06:00PM 32.6833 -83.6000 270° West 112 129 8,000  Level Atlanta TRACON
06:01PM 32.6833 -83.6333 270° West 101 116 8,000  Level Atlanta TRACON
06:02PM 32.6833 -83.6500 270° West 91 105 8,000  Level Atlanta TRACON
06:03PM 32.6833 -83.7167 270° West 104 120 8,000  Level Atlanta TRACON
06:04PM 32.6833 -83.7500 270° West 113 130 8,000  Level Atlanta TRACON
06:05PM 32.6833 -83.7833 270° West 116 133 8,000  Level Atlanta TRACON
06:06PM 32.6833 -83.8333 270° West 116 133 8,000  Level Atlanta TRACON
06:07PM 32.6833 -83.8667 270° West 116 133 8,000  Level Atlanta TRACON
06:08PM 32.6667 -83.9167 248° West 119 137 8,000  Level Atlanta TRACON
06:09PM 32.6667 -83.9500 270° West 119 137 8,000  Level Atlanta TRACON
06:10PM 32.6667 -83.9833 270° West 119 137 8,000  Level Atlanta TRACON
06:11PM 32.6667 -84.0333 270° West 122 140 8,000  Level Atlanta TRACON
06:12PM 32.6667 -84.0667 270° West 120 138 8,000  Level Atlanta TRACON
06:13PM 32.6667 -84.1000 270° West 121 139 8,000  Level Atlanta TRACON
06:14PM 32.6500 -84.1333 239° Southwest 118 136 8,000  Level Atlanta TRACON
06:15PM 32.6500 -84.1833 270° West 121 139 8,000  Level Atlanta TRACON
06:16PM 32.6500 -84.2167 270° West 125 144 8,000  Level Atlanta TRACON
06:17PM 32.6500 -84.2667 270° West 122 140 8,000  Level Atlanta TRACON
06:18PM 32.6500 -84.3000 270° West 121 139 8,000  Level Atlanta TRACON
06:19PM 32.6500 -84.3500 270° West 124 143 8,000  Level Atlanta TRACON
06:20PM 32.6333 -84.3833 239° Southwest 121 139 8,000  Level Atlanta TRACON
06:21PM 32.6333 -84.4167 270° West 123 142 8,000  Level Atlanta TRACON
06:22PM 32.6333 -84.4667 270° West 122 140 8,000  Level Atlanta TRACON
06:23PM 32.6333 -84.5000 270° West 120 138 8,000  Level Atlanta TRACON
06:24PM 32.6333 -84.5500 270° West 119 137 8,000  Level Atlanta TRACON
06:25PM 32.6333 -84.5833 270° West 119 137 8,000  Level Atlanta TRACON
06:26PM 32.6333 -84.6167 270° West 117 135 8,000  Level Atlanta TRACON
06:27PM 32.6333 -84.6500 270° West 116 133 8,000  Level Atlanta TRACON
06:28PM 32.6333 -84.7000 270° West 115 132 8,000  Level Atlanta TRACON
06:29PM 32.6333 -84.7333 270° West 115 132 8,000  Level Atlanta TRACON
06:30PM 32.6333 -84.7667 270° West 117 135 8,000  Level Atlanta TRACON
06:31PM 32.6167 -84.8167 248° West 118 136 8,000  Level Atlanta TRACON
06:32PM 32.6167 -84.8500 270° West 118 136 8,000 -120 Level Atlanta TRACON
06:33PM 32.6167 -84.8833 270° West 117 135 7,800 -420 Descending Atlanta TRACON
06:34PM 32.6167 -84.9333 270° West 119 137 7,300 -480 Descending Atlanta TRACON
06:35PM 32.6167 -84.9667 270° West 119 137 6,900 -480 Descending Atlanta TRACON
06:36PM 32.6167 -85.0167 270° West 122 140 6,400 -480 Descending Atlanta TRACON
06:37PM 32.6167 -85.0500 270° West 126 145 6,000 -420 Descending Atlanta TRACON
06:38PM 32.6167 -85.1000 270° West 125 144 5,600 -420 Descending Atlanta TRACON